sensor_id;sensor_type;location;lat;lon;timestamp;P1;durP1;ratioP1;P2;durP2;ratioP2
33902;SDS011;20194;50.950;5.346;2022-11-12T00:00:40;18.10;;;8.80;;
33902;SDS011;20194;50.950;5.346;2022-11-12T00:03:06;12.98;;;7.93;;
33902;SDS011;20194;50.950;5.346;2022-11-12T00:05:32;12.45;;;7.70;;
33902;SDS011;20194;50.950;5.346;2022-11-12T00:07:58;13.77;;;8.00;;
33902;SDS011;20194;50.950;5.346;2022-11-12T00:10:24;15.20;;;7.75;;
33902;SDS011;20194;50.950;5.346;2022-11-12T00:12:50;15.65;;;8.18;;
33902;SDS011;20194;50.950;5.346;2022-11-12T00:15:16;15.93;;;7.90;;
33902;SDS011;20194;50.950;5.346;2022-11-12T00:17:42;14.98;;;8.35;;
33902;SDS011;20194;50.950;5.346;2022-11-12T00:20:08;12.27;;;7.53;;
33902;SDS011;20194;50.950;5.346;2022-11-12T00:22:35;15.50;;;8.07;;
33902;SDS011;20194;50.950;5.346;2022-11-12T00:25:00;11.73;;;6.95;;
33902;SDS011;20194;50.950;5.346;2022-11-12T00:27:26;11.10;;;7.85;;
33902;SDS011;20194;50.950;5.346;2022-11-12T00:29:52;13.50;;;7.20;;
33902;SDS011;20194;50.950;5.346;2022-11-12T00:32:18;10.68;;;7.38;;
33902;SDS011;20194;50.950;5.346;2022-11-12T00:34:44;14.65;;;7.63;;
33902;SDS011;20194;50.950;5.346;2022-11-12T00:37:10;17.90;;;7.72;;
33902;SDS011;20194;50.950;5.346;2022-11-12T00:39:35;14.27;;;7.97;;
33902;SDS011;20194;50.950;5.346;2022-11-12T00:42:01;13.00;;;8.18;;
33902;SDS011;20194;50.950;5.346;2022-11-12T00:44:26;16.85;;;8.10;;
33902;SDS011;20194;50.950;5.346;2022-11-12T00:46:53;11.32;;;6.80;;
33902;SDS011;20194;50.950;5.346;2022-11-12T00:49:19;13.52;;;7.28;;
33902;SDS011;20194;50.950;5.346;2022-11-12T00:51:45;11.98;;;7.72;;
33902;SDS011;20194;50.950;5.346;2022-11-12T00:54:11;12.20;;;7.88;;
33902;SDS011;20194;50.950;5.346;2022-11-12T00:56:37;12.68;;;6.93;;
33902;SDS011;20194;50.950;5.346;2022-11-12T00:59:03;14.25;;;7.72;;
33902;SDS011;20194;50.950;5.346;2022-11-12T01:01:29;13.88;;;7.60;;
33902;SDS011;20194;50.950;5.346;2022-11-12T01:03:56;14.95;;;7.65;;
33902;SDS011;20194;50.950;5.346;2022-11-12T01:06:22;12.27;;;7.65;;
33902;SDS011;20194;50.950;5.346;2022-11-12T01:08:49;12.95;;;7.95;;
33902;SDS011;20194;50.950;5.346;2022-11-12T01:11:16;15.50;;;8.48;;
33902;SDS011;20194;50.950;5.346;2022-11-12T01:13:44;13.68;;;8.02;;
33902;SDS011;20194;50.950;5.346;2022-11-12T01:16:15;17.30;;;8.88;;
33902;SDS011;20194;50.950;5.346;2022-11-12T01:18:46;18.50;;;8.85;;
33902;SDS011;20194;50.950;5.346;2022-11-12T01:21:16;14.27;;;8.35;;
33902;SDS011;20194;50.950;5.346;2022-11-12T01:23:42;15.60;;;9.02;;
33902;SDS011;20194;50.950;5.346;2022-11-12T01:26:11;20.90;;;11.15;;
33902;SDS011;20194;50.950;5.346;2022-11-12T01:28:41;16.05;;;9.20;;
33902;SDS011;20194;50.950;5.346;2022-11-12T01:33:43;19.13;;;9.30;;
33902;SDS011;20194;50.950;5.346;2022-11-12T01:36:10;18.33;;;9.05;;
33902;SDS011;20194;50.950;5.346;2022-11-12T01:38:38;14.50;;;8.48;;
33902;SDS011;20194;50.950;5.346;2022-11-12T01:41:06;16.45;;;9.27;;
33902;SDS011;20194;50.950;5.346;2022-11-12T01:43:33;14.18;;;8.63;;
33902;SDS011;20194;50.950;5.346;2022-11-12T01:46:00;22.77;;;10.15;;
33902;SDS011;20194;50.950;5.346;2022-11-12T01:48:40;13.38;;;8.45;;
33902;SDS011;20194;50.950;5.346;2022-11-12T01:53:55;19.17;;;9.80;;
33902;SDS011;20194;50.950;5.346;2022-11-12T01:56:24;15.43;;;9.02;;
33902;SDS011;20194;50.950;5.346;2022-11-12T01:58:53;17.63;;;9.18;;
33902;SDS011;20194;50.950;5.346;2022-11-12T02:01:23;18.52;;;11.00;;
33902;SDS011;20194;50.950;5.346;2022-11-12T02:03:49;19.35;;;9.73;;
33902;SDS011;20194;50.950;5.346;2022-11-12T02:06:15;20.50;;;10.75;;
33902;SDS011;20194;50.950;5.346;2022-11-12T02:08:43;19.02;;;9.50;;
33902;SDS011;20194;50.950;5.346;2022-11-12T02:11:13;17.42;;;10.40;;
33902;SDS011;20194;50.950;5.346;2022-11-12T02:13:41;17.33;;;9.82;;
33902;SDS011;20194;50.950;5.346;2022-11-12T02:16:33;18.80;;;10.05;;
33902;SDS011;20194;50.950;5.346;2022-11-12T02:19:09;18.10;;;9.48;;
33902;SDS011;20194;50.950;5.346;2022-11-12T02:21:36;16.50;;;10.13;;
33902;SDS011;20194;50.950;5.346;2022-11-12T02:24:04;16.00;;;8.95;;
33902;SDS011;20194;50.950;5.346;2022-11-12T02:26:36;18.65;;;10.82;;
33902;SDS011;20194;50.950;5.346;2022-11-12T02:29:11;13.95;;;9.10;;
33902;SDS011;20194;50.950;5.346;2022-11-12T02:31:37;18.65;;;8.98;;
33902;SDS011;20194;50.950;5.346;2022-11-12T02:34:03;15.57;;;8.60;;
33902;SDS011;20194;50.950;5.346;2022-11-12T02:36:29;15.82;;;10.13;;
33902;SDS011;20194;50.950;5.346;2022-11-12T02:38:55;20.02;;;9.10;;
33902;SDS011;20194;50.950;5.346;2022-11-12T02:41:21;13.85;;;8.73;;
33902;SDS011;20194;50.950;5.346;2022-11-12T02:43:47;16.80;;;8.85;;
33902;SDS011;20194;50.950;5.346;2022-11-12T02:46:13;17.15;;;9.20;;
33902;SDS011;20194;50.950;5.346;2022-11-12T02:48:39;15.13;;;8.85;;
33902;SDS011;20194;50.950;5.346;2022-11-12T02:51:04;15.23;;;9.00;;
33902;SDS011;20194;50.950;5.346;2022-11-12T02:53:30;13.30;;;8.98;;
33902;SDS011;20194;50.950;5.346;2022-11-12T02:55:56;15.30;;;9.25;;
33902;SDS011;20194;50.950;5.346;2022-11-12T02:58:23;20.05;;;9.77;;
33902;SDS011;20194;50.950;5.346;2022-11-12T03:00:49;18.30;;;9.98;;
33902;SDS011;20194;50.950;5.346;2022-11-12T03:03:15;16.60;;;9.30;;
33902;SDS011;20194;50.950;5.346;2022-11-12T03:05:41;18.52;;;9.98;;
33902;SDS011;20194;50.950;5.346;2022-11-12T03:08:08;14.60;;;8.77;;
33902;SDS011;20194;50.950;5.346;2022-11-12T03:10:37;17.40;;;8.98;;
33902;SDS011;20194;50.950;5.346;2022-11-12T03:13:04;17.00;;;9.20;;
33902;SDS011;20194;50.950;5.346;2022-11-12T03:15:30;15.95;;;9.23;;
33902;SDS011;20194;50.950;5.346;2022-11-12T03:17:57;14.65;;;8.25;;
33902;SDS011;20194;50.950;5.346;2022-11-12T03:20:24;18.88;;;8.50;;
33902;SDS011;20194;50.950;5.346;2022-11-12T03:22:57;13.05;;;7.88;;
33902;SDS011;20194;50.950;5.346;2022-11-12T03:25:24;14.90;;;8.20;;
33902;SDS011;20194;50.950;5.346;2022-11-12T03:27:57;16.38;;;8.52;;
33902;SDS011;20194;50.950;5.346;2022-11-12T03:30:31;12.65;;;7.55;;
33902;SDS011;20194;50.950;5.346;2022-11-12T03:32:58;14.38;;;7.80;;
33902;SDS011;20194;50.950;5.346;2022-11-12T03:35:24;14.85;;;8.05;;
33902;SDS011;20194;50.950;5.346;2022-11-12T03:37:50;16.38;;;7.97;;
33902;SDS011;20194;50.950;5.346;2022-11-12T03:40:17;11.98;;;7.97;;
33902;SDS011;20194;50.950;5.346;2022-11-12T03:42:44;15.52;;;7.90;;
33902;SDS011;20194;50.950;5.346;2022-11-12T03:45:10;9.98;;;6.85;;
33902;SDS011;20194;50.950;5.346;2022-11-12T03:47:39;10.63;;;7.13;;
33902;SDS011;20194;50.950;5.346;2022-11-12T03:50:09;12.38;;;7.15;;
33902;SDS011;20194;50.950;5.346;2022-11-12T03:52:35;12.88;;;7.75;;
33902;SDS011;20194;50.950;5.346;2022-11-12T03:55:01;12.15;;;7.80;;
33902;SDS011;20194;50.950;5.346;2022-11-12T03:57:28;15.93;;;7.95;;
33902;SDS011;20194;50.950;5.346;2022-11-12T03:59:53;11.35;;;7.95;;
33902;SDS011;20194;50.950;5.346;2022-11-12T04:02:19;14.93;;;7.75;;
33902;SDS011;20194;50.950;5.346;2022-11-12T04:04:45;11.30;;;7.13;;
33902;SDS011;20194;50.950;5.346;2022-11-12T04:07:29;10.73;;;6.72;;
33902;SDS011;20194;50.950;5.346;2022-11-12T04:10:13;11.27;;;7.18;;
33902;SDS011;20194;50.950;5.346;2022-11-12T04:12:38;13.90;;;6.97;;
33902;SDS011;20194;50.950;5.346;2022-11-12T04:17:48;13.98;;;7.65;;
33902;SDS011;20194;50.950;5.346;2022-11-12T04:23:30;10.73;;;6.50;;
33902;SDS011;20194;50.950;5.346;2022-11-12T04:25:56;11.02;;;6.63;;
33902;SDS011;20194;50.950;5.346;2022-11-12T04:28:40;11.57;;;7.00;;
33902;SDS011;20194;50.950;5.346;2022-11-12T04:31:26;10.80;;;7.10;;
33902;SDS011;20194;50.950;5.346;2022-11-12T04:33:52;17.48;;;8.15;;
33902;SDS011;20194;50.950;5.346;2022-11-12T04:36:17;13.00;;;7.60;;
33902;SDS011;20194;50.950;5.346;2022-11-12T04:38:44;14.57;;;7.13;;
33902;SDS011;20194;50.950;5.346;2022-11-12T04:41:09;15.80;;;7.03;;
33902;SDS011;20194;50.950;5.346;2022-11-12T04:43:54;15.82;;;7.07;;
33902;SDS011;20194;50.950;5.346;2022-11-12T04:46:38;13.50;;;7.07;;
33902;SDS011;20194;50.950;5.346;2022-11-12T04:49:03;12.68;;;6.78;;
33902;SDS011;20194;50.950;5.346;2022-11-12T04:51:29;12.07;;;7.00;;
33902;SDS011;20194;50.950;5.346;2022-11-12T04:54:13;11.95;;;6.88;;
33902;SDS011;20194;50.950;5.346;2022-11-12T04:56:39;10.60;;;6.43;;
33902;SDS011;20194;50.950;5.346;2022-11-12T04:59:05;14.80;;;6.40;;
33902;SDS011;20194;50.950;5.346;2022-11-12T05:01:31;10.57;;;6.28;;
33902;SDS011;20194;50.950;5.346;2022-11-12T05:03:56;13.18;;;7.25;;
33902;SDS011;20194;50.950;5.346;2022-11-12T05:06:22;11.32;;;6.30;;
33902;SDS011;20194;50.950;5.346;2022-11-12T05:11:32;12.15;;;6.20;;
33902;SDS011;20194;50.950;5.346;2022-11-12T05:13:57;10.02;;;6.63;;
33902;SDS011;20194;50.950;5.346;2022-11-12T05:16:23;12.05;;;6.88;;
33902;SDS011;20194;50.950;5.346;2022-11-12T05:18:49;10.48;;;6.85;;
33902;SDS011;20194;50.950;5.346;2022-11-12T05:21:15;13.27;;;7.20;;
33902;SDS011;20194;50.950;5.346;2022-11-12T05:24:00;13.63;;;6.95;;
33902;SDS011;20194;50.950;5.346;2022-11-12T05:26:25;14.75;;;6.72;;
33902;SDS011;20194;50.950;5.346;2022-11-12T05:28:51;15.07;;;6.63;;
33902;SDS011;20194;50.950;5.346;2022-11-12T05:31:16;12.02;;;6.00;;
33902;SDS011;20194;50.950;5.346;2022-11-12T05:33:42;9.35;;;6.63;;
33902;SDS011;20194;50.950;5.346;2022-11-12T05:36:08;12.25;;;6.45;;
33902;SDS011;20194;50.950;5.346;2022-11-12T05:38:33;12.52;;;6.82;;
33902;SDS011;20194;50.950;5.346;2022-11-12T05:41:02;10.88;;;7.28;;
33902;SDS011;20194;50.950;5.346;2022-11-12T05:43:27;12.27;;;6.53;;
33902;SDS011;20194;50.950;5.346;2022-11-12T05:45:53;12.68;;;6.75;;
33902;SDS011;20194;50.950;5.346;2022-11-12T05:48:18;12.02;;;7.03;;
33902;SDS011;20194;50.950;5.346;2022-11-12T05:50:47;12.43;;;6.97;;
33902;SDS011;20194;50.950;5.346;2022-11-12T05:53:14;11.23;;;7.20;;
33902;SDS011;20194;50.950;5.346;2022-11-12T05:55:39;11.18;;;7.10;;
33902;SDS011;20194;50.950;5.346;2022-11-12T05:58:05;10.52;;;6.78;;
33902;SDS011;20194;50.950;5.346;2022-11-12T06:00:31;9.35;;;6.68;;
33902;SDS011;20194;50.950;5.346;2022-11-12T06:03:03;10.15;;;6.07;;
33902;SDS011;20194;50.950;5.346;2022-11-12T06:05:30;13.30;;;5.97;;
33902;SDS011;20194;50.950;5.346;2022-11-12T06:07:56;12.65;;;6.30;;
33902;SDS011;20194;50.950;5.346;2022-11-12T06:10:22;10.43;;;6.13;;
33902;SDS011;20194;50.950;5.346;2022-11-12T06:12:48;12.90;;;6.35;;
33902;SDS011;20194;50.950;5.346;2022-11-12T06:15:13;10.40;;;6.32;;
33902;SDS011;20194;50.950;5.346;2022-11-12T06:17:39;11.88;;;6.25;;
33902;SDS011;20194;50.950;5.346;2022-11-12T06:20:07;10.18;;;5.75;;
33902;SDS011;20194;50.950;5.346;2022-11-12T06:22:33;11.68;;;6.78;;
33902;SDS011;20194;50.950;5.346;2022-11-12T06:24:59;11.68;;;6.40;;
33902;SDS011;20194;50.950;5.346;2022-11-12T06:27:24;13.05;;;6.97;;
33902;SDS011;20194;50.950;5.346;2022-11-12T06:29:50;15.30;;;6.25;;
33902;SDS011;20194;50.950;5.346;2022-11-12T06:32:16;10.35;;;6.22;;
33902;SDS011;20194;50.950;5.346;2022-11-12T06:34:42;10.80;;;6.75;;
33902;SDS011;20194;50.950;5.346;2022-11-12T06:37:08;14.60;;;7.90;;
33902;SDS011;20194;50.950;5.346;2022-11-12T06:39:34;11.40;;;6.95;;
33902;SDS011;20194;50.950;5.346;2022-11-12T06:41:59;13.23;;;7.07;;
33902;SDS011;20194;50.950;5.346;2022-11-12T06:44:26;11.82;;;6.72;;
33902;SDS011;20194;50.950;5.346;2022-11-12T06:46:52;10.27;;;6.70;;
33902;SDS011;20194;50.950;5.346;2022-11-12T06:49:17;11.05;;;6.35;;
33902;SDS011;20194;50.950;5.346;2022-11-12T06:51:43;9.02;;;6.22;;
33902;SDS011;20194;50.950;5.346;2022-11-12T06:54:09;11.75;;;7.13;;
33902;SDS011;20194;50.950;5.346;2022-11-12T06:56:34;15.30;;;6.78;;
33902;SDS011;20194;50.950;5.346;2022-11-12T06:59:01;11.65;;;7.05;;
33902;SDS011;20194;50.950;5.346;2022-11-12T07:01:26;12.07;;;6.47;;
33902;SDS011;20194;50.950;5.346;2022-11-12T07:03:52;14.48;;;6.82;;
33902;SDS011;20194;50.950;5.346;2022-11-12T07:06:18;14.60;;;6.60;;
33902;SDS011;20194;50.950;5.346;2022-11-12T07:08:45;11.95;;;6.63;;
33902;SDS011;20194;50.950;5.346;2022-11-12T07:11:11;12.57;;;6.10;;
33902;SDS011;20194;50.950;5.346;2022-11-12T07:13:37;13.32;;;7.35;;
33902;SDS011;20194;50.950;5.346;2022-11-12T07:16:04;12.43;;;6.47;;
33902;SDS011;20194;50.950;5.346;2022-11-12T07:18:32;19.13;;;6.90;;
33902;SDS011;20194;50.950;5.346;2022-11-12T07:20:59;11.70;;;6.57;;
33902;SDS011;20194;50.950;5.346;2022-11-12T07:23:30;13.13;;;7.40;;
33902;SDS011;20194;50.950;5.346;2022-11-12T07:26:01;10.02;;;6.15;;
33902;SDS011;20194;50.950;5.346;2022-11-12T07:28:28;15.25;;;6.57;;
33902;SDS011;20194;50.950;5.346;2022-11-12T07:30:58;10.80;;;6.45;;
33902;SDS011;20194;50.950;5.346;2022-11-12T07:33:25;14.63;;;6.35;;
33902;SDS011;20194;50.950;5.346;2022-11-12T07:38:24;13.73;;;6.38;;
33902;SDS011;20194;50.950;5.346;2022-11-12T07:40:56;14.15;;;7.10;;
33902;SDS011;20194;50.950;5.346;2022-11-12T07:43:30;16.00;;;6.65;;
33902;SDS011;20194;50.950;5.346;2022-11-12T07:46:01;15.35;;;6.50;;
33902;SDS011;20194;50.950;5.346;2022-11-12T07:48:30;12.90;;;7.15;;
33902;SDS011;20194;50.950;5.346;2022-11-12T07:51:00;13.00;;;6.88;;
33902;SDS011;20194;50.950;5.346;2022-11-12T07:53:30;10.93;;;7.18;;
33902;SDS011;20194;50.950;5.346;2022-11-12T07:55:57;10.73;;;6.43;;
33902;SDS011;20194;50.950;5.346;2022-11-12T07:58:25;17.48;;;6.95;;
33902;SDS011;20194;50.950;5.346;2022-11-12T08:00:52;16.05;;;7.50;;
33902;SDS011;20194;50.950;5.346;2022-11-12T08:03:18;11.40;;;6.97;;
33902;SDS011;20194;50.950;5.346;2022-11-12T08:05:44;13.73;;;7.20;;
33902;SDS011;20194;50.950;5.346;2022-11-12T08:08:10;13.00;;;7.80;;
33902;SDS011;20194;50.950;5.346;2022-11-12T08:10:36;18.15;;;8.05;;
33902;SDS011;20194;50.950;5.346;2022-11-12T08:13:02;14.25;;;8.68;;
33902;SDS011;20194;50.950;5.346;2022-11-12T08:15:28;17.50;;;8.05;;
33902;SDS011;20194;50.950;5.346;2022-11-12T08:17:54;14.35;;;7.78;;
33902;SDS011;20194;50.950;5.346;2022-11-12T08:20:20;15.57;;;8.70;;
33902;SDS011;20194;50.950;5.346;2022-11-12T08:22:46;14.10;;;7.78;;
33902;SDS011;20194;50.950;5.346;2022-11-12T08:25:12;16.52;;;8.38;;
33902;SDS011;20194;50.950;5.346;2022-11-12T08:27:39;13.05;;;7.63;;
33902;SDS011;20194;50.950;5.346;2022-11-12T08:30:04;16.92;;;7.68;;
33902;SDS011;20194;50.950;5.346;2022-11-12T08:32:31;15.27;;;8.38;;
33902;SDS011;20194;50.950;5.346;2022-11-12T08:34:56;15.65;;;7.72;;
33902;SDS011;20194;50.950;5.346;2022-11-12T08:37:22;21.08;;;7.43;;
33902;SDS011;20194;50.950;5.346;2022-11-12T08:39:48;13.90;;;7.57;;
33902;SDS011;20194;50.950;5.346;2022-11-12T08:42:14;15.50;;;8.00;;
33902;SDS011;20194;50.950;5.346;2022-11-12T08:44:39;17.10;;;7.65;;
33902;SDS011;20194;50.950;5.346;2022-11-12T08:47:05;17.15;;;7.18;;
33902;SDS011;20194;50.950;5.346;2022-11-12T08:49:31;16.33;;;7.85;;
33902;SDS011;20194;50.950;5.346;2022-11-12T08:51:56;15.25;;;7.28;;
33902;SDS011;20194;50.950;5.346;2022-11-12T08:54:22;13.65;;;7.65;;
33902;SDS011;20194;50.950;5.346;2022-11-12T08:56:48;15.75;;;7.93;;
33902;SDS011;20194;50.950;5.346;2022-11-12T08:59:15;11.77;;;7.05;;
33902;SDS011;20194;50.950;5.346;2022-11-12T09:01:41;9.38;;;7.05;;
33902;SDS011;20194;50.950;5.346;2022-11-12T09:04:07;11.20;;;7.32;;
33902;SDS011;20194;50.950;5.346;2022-11-12T09:06:32;12.25;;;7.55;;
33902;SDS011;20194;50.950;5.346;2022-11-12T09:08:58;14.88;;;8.45;;
33902;SDS011;20194;50.950;5.346;2022-11-12T09:11:24;13.20;;;7.97;;
33902;SDS011;20194;50.950;5.346;2022-11-12T09:13:51;18.98;;;8.00;;
33902;SDS011;20194;50.950;5.346;2022-11-12T09:16:17;12.80;;;7.45;;
33902;SDS011;20194;50.950;5.346;2022-11-12T09:18:46;13.52;;;7.80;;
33902;SDS011;20194;50.950;5.346;2022-11-12T09:21:11;12.23;;;7.10;;
33902;SDS011;20194;50.950;5.346;2022-11-12T09:23:37;17.73;;;7.93;;
33902;SDS011;20194;50.950;5.346;2022-11-12T09:26:03;11.10;;;6.75;;
33902;SDS011;20194;50.950;5.346;2022-11-12T09:28:30;13.65;;;7.38;;
33902;SDS011;20194;50.950;5.346;2022-11-12T09:30:56;11.68;;;6.80;;
33902;SDS011;20194;50.950;5.346;2022-11-12T09:33:29;13.15;;;7.20;;
33902;SDS011;20194;50.950;5.346;2022-11-12T09:35:58;14.40;;;7.10;;
33902;SDS011;20194;50.950;5.346;2022-11-12T09:38:26;14.63;;;6.43;;
33902;SDS011;20194;50.950;5.346;2022-11-12T09:44:01;11.85;;;6.95;;
33902;SDS011;20194;50.950;5.346;2022-11-12T09:51:54;10.52;;;6.53;;
33902;SDS011;20194;50.950;5.346;2022-11-12T09:54:31;13.98;;;6.43;;
33902;SDS011;20194;50.950;5.346;2022-11-12T09:56:59;9.05;;;6.20;;
33902;SDS011;20194;50.950;5.346;2022-11-12T09:59:27;12.27;;;6.38;;
33902;SDS011;20194;50.950;5.346;2022-11-12T10:11:12;13.77;;;5.90;;
33902;SDS011;20194;50.950;5.346;2022-11-12T10:16:39;11.52;;;6.25;;
33902;SDS011;20194;50.950;5.346;2022-11-12T10:19:31;9.50;;;6.15;;
33902;SDS011;20194;50.950;5.346;2022-11-12T10:24:56;11.98;;;6.70;;
33902;SDS011;20194;50.950;5.346;2022-11-12T10:27:39;11.48;;;6.88;;
33902;SDS011;20194;50.950;5.346;2022-11-12T10:30:16;18.92;;;6.95;;
33902;SDS011;20194;50.950;5.346;2022-11-12T10:32:44;17.83;;;6.47;;
33902;SDS011;20194;50.950;5.346;2022-11-12T10:35:13;11.32;;;6.10;;
33902;SDS011;20194;50.950;5.346;2022-11-12T10:37:44;13.05;;;6.97;;
33902;SDS011;20194;50.950;5.346;2022-11-12T10:40:30;17.50;;;7.20;;
33902;SDS011;20194;50.950;5.346;2022-11-12T10:45:40;14.95;;;7.70;;
33902;SDS011;20194;50.950;5.346;2022-11-12T10:48:28;11.25;;;7.60;;
33902;SDS011;20194;50.950;5.346;2022-11-12T10:50:56;12.25;;;6.90;;
33902;SDS011;20194;50.950;5.346;2022-11-12T10:53:33;14.35;;;7.72;;
33902;SDS011;20194;50.950;5.346;2022-11-12T10:56:01;13.57;;;6.68;;
33902;SDS011;20194;50.950;5.346;2022-11-12T10:58:28;10.10;;;6.70;;
33902;SDS011;20194;50.950;5.346;2022-11-12T11:00:58;15.27;;;6.93;;
33902;SDS011;20194;50.950;5.346;2022-11-12T11:03:35;16.17;;;6.70;;
33902;SDS011;20194;50.950;5.346;2022-11-12T11:08:44;12.13;;;6.05;;
33902;SDS011;20194;50.950;5.346;2022-11-12T11:13:40;9.38;;;6.10;;
33902;SDS011;20194;50.950;5.346;2022-11-12T11:16:07;9.55;;;5.22;;
33902;SDS011;20194;50.950;5.346;2022-11-12T11:18:38;10.57;;;6.10;;
33902;SDS011;20194;50.950;5.346;2022-11-12T11:21:12;11.75;;;5.95;;
33902;SDS011;20194;50.950;5.346;2022-11-12T11:23:49;13.75;;;6.63;;
33902;SDS011;20194;50.950;5.346;2022-11-12T11:34:46;9.70;;;5.68;;
33902;SDS011;20194;50.950;5.346;2022-11-12T11:37:27;9.43;;;5.35;;
33902;SDS011;20194;50.950;5.346;2022-11-12T11:45:24;6.15;;;4.60;;
33902;SDS011;20194;50.950;5.346;2022-11-12T11:57:14;6.85;;;4.03;;
33902;SDS011;20194;50.950;5.346;2022-11-12T12:11:14;8.23;;;4.97;;
33902;SDS011;20194;50.950;5.346;2022-11-12T12:16:27;9.48;;;4.78;;
33902;SDS011;20194;50.950;5.346;2022-11-12T12:22:02;8.57;;;4.57;;
33902;SDS011;20194;50.950;5.346;2022-11-12T12:27:24;9.10;;;4.97;;
33902;SDS011;20194;50.950;5.346;2022-11-12T12:30:05;7.15;;;4.47;;
33902;SDS011;20194;50.950;5.346;2022-11-12T12:32:52;5.40;;;4.10;;
33902;SDS011;20194;50.950;5.346;2022-11-12T12:43:34;9.50;;;4.32;;
33902;SDS011;20194;50.950;5.346;2022-11-12T12:46:08;7.80;;;4.75;;
33902;SDS011;20194;50.950;5.346;2022-11-12T12:48:38;8.68;;;4.30;;
33902;SDS011;20194;50.950;5.346;2022-11-12T12:51:06;8.15;;;4.00;;
33902;SDS011;20194;50.950;5.346;2022-11-12T12:53:33;6.18;;;3.90;;
33902;SDS011;20194;50.950;5.346;2022-11-12T12:56:01;9.27;;;4.38;;
33902;SDS011;20194;50.950;5.346;2022-11-12T12:58:32;6.50;;;4.32;;
33902;SDS011;20194;50.950;5.346;2022-11-12T13:06:28;7.57;;;3.00;;
33902;SDS011;20194;50.950;5.346;2022-11-12T13:17:00;5.43;;;2.15;;
33902;SDS011;20194;50.950;5.346;2022-11-12T13:19:36;6.63;;;2.35;;
33902;SDS011;20194;50.950;5.346;2022-11-12T13:32:41;3.25;;;2.33;;
33902;SDS011;20194;50.950;5.346;2022-11-12T13:43:10;7.50;;;2.72;;
33902;SDS011;20194;50.950;5.346;2022-11-12T13:45:45;4.10;;;2.60;;
33902;SDS011;20194;50.950;5.346;2022-11-12T13:48:20;3.92;;;2.63;;
33902;SDS011;20194;50.950;5.346;2022-11-12T13:50:51;3.72;;;1.83;;
33902;SDS011;20194;50.950;5.346;2022-11-12T13:53:30;6.50;;;2.17;;
33902;SDS011;20194;50.950;5.346;2022-11-12T13:55:56;3.85;;;2.10;;
33902;SDS011;20194;50.950;5.346;2022-11-12T13:58:29;6.80;;;2.70;;
33902;SDS011;20194;50.950;5.346;2022-11-12T14:00:57;4.15;;;2.40;;
33902;SDS011;20194;50.950;5.346;2022-11-12T14:03:29;5.13;;;2.20;;
33902;SDS011;20194;50.950;5.346;2022-11-12T14:06:02;3.80;;;2.75;;
33902;SDS011;20194;50.950;5.346;2022-11-12T14:18:51;2.25;;;1.90;;
33902;SDS011;20194;50.950;5.346;2022-11-12T14:21:26;5.88;;;2.50;;
33902;SDS011;20194;50.950;5.346;2022-11-12T14:23:53;2.35;;;1.90;;
33902;SDS011;20194;50.950;5.346;2022-11-12T14:26:35;3.20;;;2.25;;
33902;SDS011;20194;50.950;5.346;2022-11-12T14:29:03;4.93;;;2.28;;
33902;SDS011;20194;50.950;5.346;2022-11-12T14:31:29;5.28;;;2.25;;
33902;SDS011;20194;50.950;5.346;2022-11-12T14:33:55;4.32;;;2.20;;
33902;SDS011;20194;50.950;5.346;2022-11-12T14:36:20;4.28;;;2.30;;
33902;SDS011;20194;50.950;5.346;2022-11-12T14:38:48;2.90;;;2.33;;
33902;SDS011;20194;50.950;5.346;2022-11-12T14:41:18;5.85;;;2.78;;
33902;SDS011;20194;50.950;5.346;2022-11-12T14:44:02;5.85;;;2.30;;
33902;SDS011;20194;50.950;5.346;2022-11-12T14:47:11;6.40;;;2.10;;
33902;SDS011;20194;50.950;5.346;2022-11-12T14:51:49;5.32;;;2.28;;
33902;SDS011;20194;50.950;5.346;2022-11-12T14:54:24;4.30;;;2.40;;
33902;SDS011;20194;50.950;5.346;2022-11-12T14:56:56;4.28;;;2.38;;
33902;SDS011;20194;50.950;5.346;2022-11-12T14:59:24;5.57;;;2.50;;
33902;SDS011;20194;50.950;5.346;2022-11-12T15:04:58;4.63;;;2.85;;
33902;SDS011;20194;50.950;5.346;2022-11-12T15:07:49;4.50;;;2.33;;
33902;SDS011;20194;50.950;5.346;2022-11-12T15:13:20;4.50;;;2.13;;
33902;SDS011;20194;50.950;5.346;2022-11-12T15:15:49;5.85;;;2.65;;
33902;SDS011;20194;50.950;5.346;2022-11-12T15:18:20;3.45;;;2.05;;
33902;SDS011;20194;50.950;5.346;2022-11-12T15:23:52;2.88;;;2.08;;
33902;SDS011;20194;50.950;5.346;2022-11-12T15:26:31;3.97;;;2.33;;
33902;SDS011;20194;50.950;5.346;2022-11-12T15:31:48;6.47;;;2.28;;
33902;SDS011;20194;50.950;5.346;2022-11-12T15:34:23;4.93;;;2.28;;
33902;SDS011;20194;50.950;5.346;2022-11-12T15:36:48;3.67;;;2.20;;
33902;SDS011;20194;50.950;5.346;2022-11-12T15:39:15;6.47;;;2.33;;
33902;SDS011;20194;50.950;5.346;2022-11-12T15:41:41;3.92;;;2.40;;
33902;SDS011;20194;50.950;5.346;2022-11-12T15:44:10;5.38;;;2.63;;
33902;SDS011;20194;50.950;5.346;2022-11-12T15:46:36;7.32;;;3.20;;
33902;SDS011;20194;50.950;5.346;2022-11-12T15:49:09;7.15;;;3.42;;
33902;SDS011;20194;50.950;5.346;2022-11-12T15:51:36;8.95;;;3.55;;
33902;SDS011;20194;50.950;5.346;2022-11-12T15:54:02;10.13;;;3.35;;
33902;SDS011;20194;50.950;5.346;2022-11-12T15:56:29;5.93;;;3.08;;
33902;SDS011;20194;50.950;5.346;2022-11-12T15:58:55;11.23;;;3.63;;
33902;SDS011;20194;50.950;5.346;2022-11-12T16:01:21;7.00;;;3.70;;
33902;SDS011;20194;50.950;5.346;2022-11-12T16:03:47;6.68;;;3.15;;
33902;SDS011;20194;50.950;5.346;2022-11-12T16:06:13;7.60;;;3.85;;
33902;SDS011;20194;50.950;5.346;2022-11-12T16:08:38;5.85;;;3.30;;
33902;SDS011;20194;50.950;5.346;2022-11-12T16:11:04;5.45;;;3.00;;
33902;SDS011;20194;50.950;5.346;2022-11-12T16:13:50;5.65;;;2.90;;
33902;SDS011;20194;50.950;5.346;2022-11-12T16:16:15;5.57;;;2.85;;
33902;SDS011;20194;50.950;5.346;2022-11-12T16:18:41;7.90;;;3.22;;
33902;SDS011;20194;50.950;5.346;2022-11-12T16:21:07;7.80;;;3.88;;
33902;SDS011;20194;50.950;5.346;2022-11-12T16:23:33;7.25;;;2.40;;
33902;SDS011;20194;50.950;5.346;2022-11-12T16:26:01;5.85;;;3.70;;
33902;SDS011;20194;50.950;5.346;2022-11-12T16:28:31;4.18;;;3.08;;
33902;SDS011;20194;50.950;5.346;2022-11-12T16:30:57;6.38;;;3.35;;
33902;SDS011;20194;50.950;5.346;2022-11-12T16:33:22;6.70;;;3.42;;
33902;SDS011;20194;50.950;5.346;2022-11-12T16:35:48;5.45;;;3.00;;
33902;SDS011;20194;50.950;5.346;2022-11-12T16:38:14;7.22;;;4.05;;
33902;SDS011;20194;50.950;5.346;2022-11-12T16:40:42;8.98;;;3.63;;
33902;SDS011;20194;50.950;5.346;2022-11-12T16:43:08;5.45;;;3.25;;
33902;SDS011;20194;50.950;5.346;2022-11-12T16:45:35;7.97;;;4.05;;
33902;SDS011;20194;50.950;5.346;2022-11-12T16:48:05;10.65;;;4.55;;
33902;SDS011;20194;50.950;5.346;2022-11-12T16:50:36;9.80;;;4.32;;
33902;SDS011;20194;50.950;5.346;2022-11-12T16:53:02;11.23;;;4.90;;
33902;SDS011;20194;50.950;5.346;2022-11-12T16:55:28;9.48;;;4.63;;
33902;SDS011;20194;50.950;5.346;2022-11-12T16:57:53;9.77;;;5.25;;
33902;SDS011;20194;50.950;5.346;2022-11-12T17:00:19;9.27;;;4.80;;
33902;SDS011;20194;50.950;5.346;2022-11-12T17:02:45;15.10;;;5.32;;
33902;SDS011;20194;50.950;5.346;2022-11-12T17:05:15;10.10;;;5.25;;
33902;SDS011;20194;50.950;5.346;2022-11-12T17:07:49;10.68;;;5.43;;
33902;SDS011;20194;50.950;5.346;2022-11-12T17:10:19;12.10;;;4.78;;
33902;SDS011;20194;50.950;5.346;2022-11-12T17:12:51;7.82;;;4.93;;
33902;SDS011;20194;50.950;5.346;2022-11-12T17:15:17;11.82;;;5.43;;
33902;SDS011;20194;50.950;5.346;2022-11-12T17:17:44;8.95;;;5.22;;
33902;SDS011;20194;50.950;5.346;2022-11-12T17:20:09;7.85;;;4.97;;
33902;SDS011;20194;50.950;5.346;2022-11-12T17:22:35;12.60;;;5.78;;